sensor_id;sensor_type;location;lat;lon;timestamp;temperature;humidity
13496;DHT22;6820;49.374;8.452;2022-09-27T00:00:08;12.03;99.99
13496;DHT22;6820;49.374;8.452;2022-09-27T00:04:13;12.03;99.99
13496;DHT22;6820;49.374;8.452;2022-09-27T00:08:18;12.01;99.99
13496;DHT22;6820;49.374;8.452;2022-09-27T00:12:23;12.04;99.99
13496;DHT22;6820;49.374;8.452;2022-09-27T00:16:27;12.07;99.99
13496;DHT22;6820;49.374;8.452;2022-09-27T00:20:31;12.04;99.99
13496;DHT22;6820;49.374;8.452;2022-09-27T00:24:39;12.05;99.99
13496;DHT22;6820;49.374;8.452;2022-09-27T00:28:42;12.11;99.99
13496;DHT22;6820;49.374;8.452;2022-09-27T00:32:46;12.08;99.99
13496;DHT22;6820;49.374;8.452;2022-09-27T00:36:58;12.08;99.99
13496;DHT22;6820;49.374;8.452;2022-09-27T00:41:01;12.04;99.99
13496;DHT22;6820;49.374;8.452;2022-09-27T00:45:05;12.05;99.99
13496;DHT22;6820;49.374;8.452;2022-09-27T00:49:22;12.04;99.99
13496;DHT22;6820;49.374;8.452;2022-09-27T00:53:50;12.03;99.99
13496;DHT22;6820;49.374;8.452;2022-09-27T00:57:55;12.00;99.99
13496;DHT22;6820;49.374;8.452;2022-09-27T01:01:58;11.98;99.99
13496;DHT22;6820;49.374;8.452;2022-09-27T01:06:01;11.98;99.99
13496;DHT22;6820;49.374;8.452;2022-09-27T01:10:15;11.98;99.99
13496;DHT22;6820;49.374;8.452;2022-09-27T01:18:59;11.98;99.99
13496;DHT22;6820;49.374;8.452;2022-09-27T01:31:46;12.00;99.99
13496;DHT22;6820;49.374;8.452;2022-09-27T01:40:38;12.04;99.99
13496;DHT22;6820;49.374;8.452;2022-09-27T01:45:08;12.05;99.99
13496;DHT22;6820;49.374;8.452;2022-09-27T01:49:38;12.07;99.99
13496;DHT22;6820;49.374;8.452;2022-09-27T01:53:52;12.07;99.99
13496;DHT22;6820;49.374;8.452;2022-09-27T01:58:40;12.07;99.99
13496;DHT22;6820;49.374;8.452;2022-09-27T02:02:57;12.07;99.99
13496;DHT22;6820;49.374;8.452;2022-09-27T02:07:19;12.07;99.99
13496;DHT22;6820;49.374;8.452;2022-09-27T02:11:28;12.04;99.99
13496;DHT22;6820;49.374;8.452;2022-09-27T02:15:50;12.05;99.99
13496;DHT22;6820;49.374;8.452;2022-09-27T02:24:42;12.03;99.99
13496;DHT22;6820;49.374;8.452;2022-09-27T02:28:59;12.05;99.99
13496;DHT22;6820;49.374;8.452;2022-09-27T02:33:25;12.05;99.99
13496;DHT22;6820;49.374;8.452;2022-09-27T02:37:32;12.07;99.99
13496;DHT22;6820;49.374;8.452;2022-09-27T02:41:35;12.05;99.99
13496;DHT22;6820;49.374;8.452;2022-09-27T02:45:46;12.07;99.99
13496;DHT22;6820;49.374;8.452;2022-09-27T02:54:59;12.08;99.99
13496;DHT22;6820;49.374;8.452;2022-09-27T03:03:59;12.05;99.99
13496;DHT22;6820;49.374;8.452;2022-09-27T03:08:28;12.04;99.99
13496;DHT22;6820;49.374;8.452;2022-09-27T03:12:30;12.03;99.99
13496;DHT22;6820;49.374;8.452;2022-09-27T03:16:37;12.01;99.99
13496;DHT22;6820;49.374;8.452;2022-09-27T03:21:01;11.98;99.99
13496;DHT22;6820;49.374;8.452;2022-09-27T03:25:04;12.00;99.99
13496;DHT22;6820;49.374;8.452;2022-09-27T03:29:07;12.01;99.99
13496;DHT22;6820;49.374;8.452;2022-09-27T03:33:15;11.97;99.99
13496;DHT22;6820;49.374;8.452;2022-09-27T03:37:20;11.93;99.99
13496;DHT22;6820;49.374;8.452;2022-09-27T03:41:23;11.93;99.99
13496;DHT22;6820;49.374;8.452;2022-09-27T03:45:25;11.87;99.99
13496;DHT22;6820;49.374;8.452;2022-09-27T03:49:39;11.81;99.99
13496;DHT22;6820;49.374;8.452;2022-09-27T03:53:43;11.77;99.99
13496;DHT22;6820;49.374;8.452;2022-09-27T03:57:50;11.75;99.99
13496;DHT22;6820;49.374;8.452;2022-09-27T04:01:53;11.75;99.99
13496;DHT22;6820;49.374;8.452;2022-09-27T04:06:18;11.74;99.99
13496;DHT22;6820;49.374;8.452;2022-09-27T04:10:24;11.70;99.99
13496;DHT22;6820;49.374;8.452;2022-09-27T04:14:29;11.70;99.99
13496;DHT22;6820;49.374;8.452;2022-09-27T04:19:03;11.66;99.99
13496;DHT22;6820;49.374;8.452;2022-09-27T04:23:19;11.67;99.99
13496;DHT22;6820;49.374;8.452;2022-09-27T04:27:46;11.67;99.99
13496;DHT22;6820;49.374;8.452;2022-09-27T04:32:00;11.63;99.99
13496;DHT22;6820;49.374;8.452;2022-09-27T04:36:37;11.62;99.99
13496;DHT22;6820;49.374;8.452;2022-09-27T04:40:54;11.63;99.99
13496;DHT22;6820;49.374;8.452;2022-09-27T04:44:58;11.63;99.99
13496;DHT22;6820;49.374;8.452;2022-09-27T04:49:00;11.63;99.99
13496;DHT22;6820;49.374;8.452;2022-09-27T04:53:12;11.63;99.99
13496;DHT22;6820;49.374;8.452;2022-09-27T04:57:19;11.57;99.99
13496;DHT22;6820;49.374;8.452;2022-09-27T05:01:25;11.56;99.99
13496;DHT22;6820;49.374;8.452;2022-09-27T05:05:45;11.54;99.99
13496;DHT22;6820;49.374;8.452;2022-09-27T05:09:48;11.53;99.99
13496;DHT22;6820;49.374;8.452;2022-09-27T05:13:53;11.46;99.99
13496;DHT22;6820;49.374;8.452;2022-09-27T05:17:59;11.46;99.99
13496;DHT22;6820;49.374;8.452;2022-09-27T05:22:22;11.48;99.99
13496;DHT22;6820;49.374;8.452;2022-09-27T05:26:29;11.44;99.99
13496;DHT22;6820;49.374;8.452;2022-09-27T05:30:32;11.39;99.99
13496;DHT22;6820;49.374;8.452;2022-09-27T05:34:48;11.38;99.99
13496;DHT22;6820;49.374;8.452;2022-09-27T05:38:51;11.35;99.99
13496;DHT22;6820;49.374;8.452;2022-09-27T05:42:55;11.36;99.99
13496;DHT22;6820;49.374;8.452;2022-09-27T05:47:02;11.38;99.99
13496;DHT22;6820;49.374;8.452;2022-09-27T05:51:05;11.39;99.99
13496;DHT22;6820;49.374;8.452;2022-09-27T05:55:13;11.41;99.99
13496;DHT22;6820;49.374;8.452;2022-09-27T05:59:16;11.35;99.99
13496;DHT22;6820;49.374;8.452;2022-09-27T06:03:41;11.36;99.99
13496;DHT22;6820;49.374;8.452;2022-09-27T06:08:13;11.38;99.99
13496;DHT22;6820;49.374;8.452;2022-09-27T06:12:22;11.36;99.99
13496;DHT22;6820;49.374;8.452;2022-09-27T06:16:27;11.39;99.99
13496;DHT22;6820;49.374;8.452;2022-09-27T06:20:41;11.44;99.99
13496;DHT22;6820;49.374;8.452;2022-09-27T06:24:46;11.48;99.99
13496;DHT22;6820;49.374;8.452;2022-09-27T06:28:57;11.48;99.99
13496;DHT22;6820;49.374;8.452;2022-09-27T06:33:00;11.53;99.99
13496;DHT22;6820;49.374;8.452;2022-09-27T06:37:11;11.54;99.99
13496;DHT22;6820;49.374;8.452;2022-09-27T06:41:22;11.57;99.99
13496;DHT22;6820;49.374;8.452;2022-09-27T06:45:48;11.59;99.99
13496;DHT22;6820;49.374;8.452;2022-09-27T06:50:15;11.67;99.99
13496;DHT22;6820;49.374;8.452;2022-09-27T06:54:25;11.70;99.99
13496;DHT22;6820;49.374;8.452;2022-09-27T06:58:32;11.74;99.99
13496;DHT22;6820;49.374;8.452;2022-09-27T07:03:16;11.84;99.99
13496;DHT22;6820;49.374;8.452;2022-09-27T07:07:51;11.94;99.99
13496;DHT22;6820;49.374;8.452;2022-09-27T07:11:58;11.98;99.99
13496;DHT22;6820;49.374;8.452;2022-09-27T07:16:06;12.03;99.99
13496;DHT22;6820;49.374;8.452;2022-09-27T07:20:12;12.07;99.99
13496;DHT22;6820;49.374;8.452;2022-09-27T07:24:28;12.07;99.99
13496;DHT22;6820;49.374;8.452;2022-09-27T07:28:36;12.03;99.99
13496;DHT22;6820;49.374;8.452;2022-09-27T07:32:38;11.98;99.99
13496;DHT22;6820;49.374;8.452;2022-09-27T07:36:43;12.03;99.99
13496;DHT22;6820;49.374;8.452;2022-09-27T07:40:45;11.97;99.99
13496;DHT22;6820;49.374;8.452;2022-09-27T07:44:47;12.00;99.99
13496;DHT22;6820;49.374;8.452;2022-09-27T07:48:51;12.07;99.99
13496;DHT22;6820;49.374;8.452;2022-09-27T07:53:22;12.18;99.99
13496;DHT22;6820;49.374;8.452;2022-09-27T07:57:30;12.18;99.99
13496;DHT22;6820;49.374;8.452;2022-09-27T08:01:34;12.26;99.99
13496;DHT22;6820;49.374;8.452;2022-09-27T08:05:36;12.38;99.99
13496;DHT22;6820;49.374;8.452;2022-09-27T08:09:38;12.44;99.99
13496;DHT22;6820;49.374;8.452;2022-09-27T08:13:40;12.51;99.99
13496;DHT22;6820;49.374;8.452;2022-09-27T08:17:42;12.61;99.99
13496;DHT22;6820;49.374;8.452;2022-09-27T08:21:59;12.67;99.99
13496;DHT22;6820;49.374;8.452;2022-09-27T08:26:06;12.71;99.99
13496;DHT22;6820;49.374;8.452;2022-09-27T08:30:21;12.80;99.99
13496;DHT22;6820;49.374;8.452;2022-09-27T08:34:23;12.89;99.99
13496;DHT22;6820;49.374;8.452;2022-09-27T08:38:26;12.95;99.99
13496;DHT22;6820;49.374;8.452;2022-09-27T08:46:52;12.96;99.99
13496;DHT22;6820;49.374;8.452;2022-09-27T08:51:02;12.92;99.99
13496;DHT22;6820;49.374;8.452;2022-09-27T08:55:09;12.91;99.99
13496;DHT22;6820;49.374;8.452;2022-09-27T08:59:24;12.94;99.99
13496;DHT22;6820;49.374;8.452;2022-09-27T09:03:30;12.96;99.99
13496;DHT22;6820;49.374;8.452;2022-09-27T09:16:44;13.36;99.99
13496;DHT22;6820;49.374;8.452;2022-09-27T09:21:56;13.29;99.99
13496;DHT22;6820;49.374;8.452;2022-09-27T09:38:42;13.07;99.99
13496;DHT22;6820;49.374;8.452;2022-09-27T09:47:12;13.03;99.99
13496;DHT22;6820;49.374;8.452;2022-09-27T09:51:26;13.12;99.99
13496;DHT22;6820;49.374;8.452;2022-09-27T09:55:33;13.17;99.99
13496;DHT22;6820;49.374;8.452;2022-09-27T09:59:38;13.29;99.99
13496;DHT22;6820;49.374;8.452;2022-09-27T10:03:48;13.31;99.99
13496;DHT22;6820;49.374;8.452;2022-09-27T10:07:51;13.28;99.99
13496;DHT22;6820;49.374;8.452;2022-09-27T10:11:55;13.16;99.99
13496;DHT22;6820;49.374;8.452;2022-09-27T10:16:04;13.13;99.99
13496;DHT22;6820;49.374;8.452;2022-09-27T10:20:15;13.19;99.99
13496;DHT22;6820;49.374;8.452;2022-09-27T10:24:22;13.21;99.99
13496;DHT22;6820;49.374;8.452;2022-09-27T10:28:42;13.35;99.99
13496;DHT22;6820;49.374;8.452;2022-09-27T10:32:58;13.55;99.99
13496;DHT22;6820;49.374;8.452;2022-09-27T10:37:15;13.62;99.99
13496;DHT22;6820;49.374;8.452;2022-09-27T10:41:39;13.57;99.99
13496;DHT22;6820;49.374;8.452;2022-09-27T10:46:29;13.54;99.99
13496;DHT22;6820;49.374;8.452;2022-09-27T10:51:03;13.80;99.99
13496;DHT22;6820;49.374;8.452;2022-09-27T10:55:23;13.91;99.99
13496;DHT22;6820;49.374;8.452;2022-09-27T10:59:29;13.88;99.99
13496;DHT22;6820;49.374;8.452;2022-09-27T11:03:35;13.73;99.99
13496;DHT22;6820;49.374;8.452;2022-09-27T11:07:59;13.59;99.99
13496;DHT22;6820;49.374;8.452;2022-09-27T11:12:16;13.48;99.99
13496;DHT22;6820;49.374;8.452;2022-09-27T11:20:52;13.55;99.99
13496;DHT22;6820;49.374;8.452;2022-09-27T11:34:14;14.16;99.99
13496;DHT22;6820;49.374;8.452;2022-09-27T12:00:13;14.93;99.99
13496;DHT22;6820;49.374;8.452;2022-09-27T12:09:24;15.18;99.99
13496;DHT22;6820;49.374;8.452;2022-09-27T12:13:39;15.44;99.99
13496;DHT22;6820;49.374;8.452;2022-09-27T12:17:51;15.59;99.99
13496;DHT22;6820;49.374;8.452;2022-09-27T12:21:58;15.41;99.99
13496;DHT22;6820;49.374;8.452;2022-09-27T12:26:09;15.34;99.99
13496;DHT22;6820;49.374;8.452;2022-09-27T12:30:19;15.34;99.99
13496;DHT22;6820;49.374;8.452;2022-09-27T12:38:50;15.12;99.99
13496;DHT22;6820;49.374;8.452;2022-09-27T12:42:54;15.04;99.99
13496;DHT22;6820;49.374;8.452;2022-09-27T12:47:28;15.12;99.99
13496;DHT22;6820;49.374;8.452;2022-09-27T12:51:59;15.30;99.99
13496;DHT22;6820;49.374;8.452;2022-09-27T13:00:25;15.33;99.99
13496;DHT22;6820;49.374;8.452;2022-09-27T13:04:49;15.19;99.99
13496;DHT22;6820;49.374;8.452;2022-09-27T13:13:13;15.00;99.99
13496;DHT22;6820;49.374;8.452;2022-09-27T13:22:09;15.03;99.99
13496;DHT22;6820;49.374;8.452;2022-09-27T13:26:44;15.23;99.99
13496;DHT22;6820;49.374;8.452;2022-09-27T13:30:48;15.20;99.99
13496;DHT22;6820;49.374;8.452;2022-09-27T13:35:08;15.19;99.99
13496;DHT22;6820;49.374;8.452;2022-09-27T13:40:09;15.13;99.99
13496;DHT22;6820;49.374;8.452;2022-09-27T13:49:24;14.80;99.99
13496;DHT22;6820;49.374;8.452;2022-09-27T13:53:42;14.71;99.99
13496;DHT22;6820;49.374;8.452;2022-09-27T13:58:01;14.82;99.99
13496;DHT22;6820;49.374;8.452;2022-09-27T14:06:40;15.73;99.99
13496;DHT22;6820;49.374;8.452;2022-09-27T14:10:45;16.04;99.99
13496;DHT22;6820;49.374;8.452;2022-09-27T14:14:48;16.22;99.99
13496;DHT22;6820;49.374;8.452;2022-09-27T14:18:53;16.14;99.99
13496;DHT22;6820;49.374;8.452;2022-09-27T14:23:23;15.88;99.99
13496;DHT22;6820;49.374;8.452;2022-09-27T14:27:27;15.64;99.99
13496;DHT22;6820;49.374;8.452;2022-09-27T14:31:39;15.44;99.99
13496;DHT22;6820;49.374;8.452;2022-09-27T14:35:55;15.34;99.99
13496;DHT22;6820;49.374;8.452;2022-09-27T14:40:21;15.28;99.99
13496;DHT22;6820;49.374;8.452;2022-09-27T14:44:23;15.28;99.99
13496;DHT22;6820;49.374;8.452;2022-09-27T14:48:33;15.35;99.99
13496;DHT22;6820;49.374;8.452;2022-09-27T14:52:37;15.28;99.99
13496;DHT22;6820;49.374;8.452;2022-09-27T14:56:39;15.20;99.99
13496;DHT22;6820;49.374;8.452;2022-09-27T15:00:44;15.55;99.99
13496;DHT22;6820;49.374;8.452;2022-09-27T15:04:47;15.91;99.99
13496;DHT22;6820;49.374;8.452;2022-09-27T15:08:51;15.74;99.99
13496;DHT22;6820;49.374;8.452;2022-09-27T15:12:54;15.18;99.99
13496;DHT22;6820;49.374;8.452;2022-09-27T15:17:00;14.94;99.99
13496;DHT22;6820;49.374;8.452;2022-09-27T15:21:09;14.66;99.99
13496;DHT22;6820;49.374;8.452;2022-09-27T15:29:21;14.29;99.99
13496;DHT22;6820;49.374;8.452;2022-09-27T15:33:25;14.13;99.99
13496;DHT22;6820;49.374;8.452;2022-09-27T15:37:33;13.96;99.99
13496;DHT22;6820;49.374;8.452;2022-09-27T15:41:58;13.81;99.99
13496;DHT22;6820;49.374;8.452;2022-09-27T15:54:28;13.51;99.99
13496;DHT22;6820;49.374;8.452;2022-09-27T15:58:32;13.46;99.99
13496;DHT22;6820;49.374;8.452;2022-09-27T16:02:35;13.44;99.99
13496;DHT22;6820;49.374;8.452;2022-09-27T16:06:37;13.51;99.99
13496;DHT22;6820;49.374;8.452;2022-09-27T16:10:39;13.62;99.99
13496;DHT22;6820;49.374;8.452;2022-09-27T16:14:44;13.80;99.99
13496;DHT22;6820;49.374;8.452;2022-09-27T16:18:47;13.75;99.99
13496;DHT22;6820;49.374;8.452;2022-09-27T16:22:49;13.69;99.99
13496;DHT22;6820;49.374;8.452;2022-09-27T16:26:52;13.50;99.99
13496;DHT22;6820;49.374;8.452;2022-09-27T16:30:53;13.31;99.99
13496;DHT22;6820;49.374;8.452;2022-09-27T16:34:55;13.13;99.99
13496;DHT22;6820;49.374;8.452;2022-09-27T16:38:57;13.03;99.99
13496;DHT22;6820;49.374;8.452;2022-09-27T16:42:59;12.92;99.99
13496;DHT22;6820;49.374;8.452;2022-09-27T16:47:04;12.81;99.99
13496;DHT22;6820;49.374;8.452;2022-09-27T16:51:15;12.70;99.99
13496;DHT22;6820;49.374;8.452;2022-09-27T16:55:36;12.56;99.99
13496;DHT22;6820;49.374;8.452;2022-09-27T16:59:38;12.54;99.99
13496;DHT22;6820;49.374;8.452;2022-09-27T17:03:40;12.51;99.99
13496;DHT22;6820;49.374;8.452;2022-09-27T17:07:41;12.43;99.99
13496;DHT22;6820;49.374;8.452;2022-09-27T17:11:43;12.37;99.99
13496;DHT22;6820;49.374;8.452;2022-09-27T17:15:47;12.30;99.99
13496;DHT22;6820;49.374;8.452;2022-09-27T17:19:49;12.21;99.99
13496;DHT22;6820;49.374;8.452;2022-09-27T17:23:51;12.15;99.99
13496;DHT22;6820;49.374;8.452;2022-09-27T17:27:53;12.12;99.99
13496;DHT22;6820;49.374;8.452;2022-09-27T17:31:55;12.07;99.99
13496;DHT22;6820;49.374;8.452;2022-09-27T17:35:57;11.97;99.99
13496;DHT22;6820;49.374;8.452;2022-09-27T17:40:00;11.88;99.99
13496;DHT22;6820;49.374;8.452;2022-09-27T17:44:02;11.82;99.99
13496;DHT22;6820;49.374;8.452;2022-09-27T17:48:04;11.79;99.99
13496;DHT22;6820;49.374;8.452;2022-09-27T17:52:23;11.72;99.99
13496;DHT22;6820;49.374;8.452;2022-09-27T17:56:26;11.67;99.99
13496;DHT22;6820;49.374;8.452;2022-09-27T18:00:28;11.66;99.99
13496;DHT22;6820;49.374;8.452;2022-09-27T18:04:30;11.62;99.99
13496;DHT22;6820;49.374;8.452;2022-09-27T18:08:32;11.56;99.99
13496;DHT22;6820;49.374;8.452;2022-09-27T18:12:34;11.54;99.99
13496;DHT22;6820;49.374;8.452;2022-09-27T18:16:37;11.53;99.99
13496;DHT22;6820;49.374;8.452;2022-09-27T18:20:43;11.53;99.99
13496;DHT22;6820;49.374;8.452;2022-09-27T18:24:44;11.51;99.99
13496;DHT22;6820;49.374;8.452;2022-09-27T18:28:46;11.46;99.99
13496;DHT22;6820;49.374;8.452;2022-09-27T18:32:48;11.41;99.99
13496;DHT22;6820;49.374;8.452;2022-09-27T18:36:51;11.36;99.99
13496;DHT22;6820;49.374;8.452;2022-09-27T18:40:53;11.35;99.99
13496;DHT22;6820;49.374;8.452;2022-09-27T18:44:57;11.33;99.99
13496;DHT22;6820;49.374;8.452;2022-09-27T18:48:59;11.33;99.99
13496;DHT22;6820;49.374;8.452;2022-09-27T18:53:01;11.35;99.99
13496;DHT22;6820;49.374;8.452;2022-09-27T18:57:03;11.41;99.99
13496;DHT22;6820;49.374;8.452;2022-09-27T19:01:05;11.42;99.99
13496;DHT22;6820;49.374;8.452;2022-09-27T19:05:08;11.44;99.99
13496;DHT22;6820;49.374;8.452;2022-09-27T19:09:10;11.45;99.99
13496;DHT22;6820;49.374;8.452;2022-09-27T19:13:12;11.46;99.99
13496;DHT22;6820;49.374;8.452;2022-09-27T19:17:13;11.48;99.99
13496;DHT22;6820;49.374;8.452;2022-09-27T19:21:16;11.48;99.99
13496;DHT22;6820;49.374;8.452;2022-09-27T19:25:19;11.46;99.99
13496;DHT22;6820;49.374;8.452;2022-09-27T19:29:21;11.48;99.99
13496;DHT22;6820;49.374;8.452;2022-09-27T19:33:23;11.44;99.99
13496;DHT22;6820;49.374;8.452;2022-09-27T19:37:24;11.46;99.99
13496;DHT22;6820;49.374;8.452;2022-09-27T19:41:26;11.48;99.99
13496;DHT22;6820;49.374;8.452;2022-09-27T19:45:27;11.51;99.99
13496;DHT22;6820;49.374;8.452;2022-09-27T19:49:29;11.54;99.99
13496;DHT22;6820;49.374;8.452;2022-09-27T19:53:31;11.56;99.99
13496;DHT22;6820;49.374;8.452;2022-09-27T19:57:34;11.59;99.99
13496;DHT22;6820;49.374;8.452;2022-09-27T20:01:35;11.56;99.99
13496;DHT22;6820;49.374;8.452;2022-09-27T20:05:37;11.54;99.99
13496;DHT22;6820;49.374;8.452;2022-09-27T20:09:39;11.53;99.99
13496;DHT22;6820;49.374;8.452;2022-09-27T20:13:42;11.49;99.99
13496;DHT22;6820;49.374;8.452;2022-09-27T20:17:43;11.53;99.99
13496;DHT22;6820;49.374;8.452;2022-09-27T20:21:45;11.49;99.99
13496;DHT22;6820;49.374;8.452;2022-09-27T20:25:47;11.48;99.99
13496;DHT22;6820;49.374;8.452;2022-09-27T20:29:48;11.48;99.99
13496;DHT22;6820;49.374;8.452;2022-09-27T20:33:50;11.44;99.99
13496;DHT22;6820;49.374;8.452;2022-09-27T20:37:52;11.44;99.99
13496;DHT22;6820;49.374;8.452;2022-09-27T20:41:54;11.41;99.99
13496;DHT22;6820;49.374;8.452;2022-09-27T20:45:58;11.41;99.99
13496;DHT22;6820;49.374;8.452;2022-09-27T20:50:01;11.42;99.99
13496;DHT22;6820;49.374;8.452;2022-09-27T20:54:03;11.41;99.99
13496;DHT22;6820;49.374;8.452;2022-09-27T20:58:06;11.35;99.99
13496;DHT22;6820;49.374;8.452;2022-09-27T21:02:08;11.31;99.99
13496;DHT22;6820;49.374;8.452;2022-09-27T21:06:10;11.27;99.99
13496;DHT22;6820;49.374;8.452;2022-09-27T21:10:13;11.28;99.99
13496;DHT22;6820;49.374;8.452;2022-09-27T21:14:14;11.27;99.99
13496;DHT22;6820;49.374;8.452;2022-09-27T21:18:16;11.28;99.99
13496;DHT22;6820;49.374;8.452;2022-09-27T21:22:20;11.28;99.99
13496;DHT22;6820;49.374;8.452;2022-09-27T21:26:22;11.27;99.99
13496;DHT22;6820;49.374;8.452;2022-09-27T21:30:24;11.30;99.99
13496;DHT22;6820;49.374;8.452;2022-09-27T21:34:26;11.30;99.99
13496;DHT22;6820;49.374;8.452;2022-09-27T21:38:28;11.33;99.99
13496;DHT22;6820;49.374;8.452;2022-09-27T21:42:31;11.30;99.99
13496;DHT22;6820;49.374;8.452;2022-09-27T21:46:32;11.30;99.99
13496;DHT22;6820;49.374;8.452;2022-09-27T21:50:34;11.30;99.99
13496;DHT22;6820;49.374;8.452;2022-09-27T21:54:36;11.24;99.99
13496;DHT22;6820;49.374;8.452;2022-09-27T21:58:38;11.23;99.99
13496;DHT22;6820;49.374;8.452;2022-09-27T22:02:40;11.20;99.99
13496;DHT22;6820;49.374;8.452;2022-09-27T22:06:43;11.20;99.99
13496;DHT22;6820;49.374;8.452;2022-09-27T22:10:45;11.20;99.99
13496;DHT22;6820;49.374;8.452;2022-09-27T22:14:46;11.21;99.99
13496;DHT22;6820;49.374;8.452;2022-09-27T22:18:49;11.19;99.99
13496;DHT22;6820;49.374;8.452;2022-09-27T22:22:52;11.23;99.99
13496;DHT22;6820;49.374;8.452;2022-09-27T22:26:54;11.24;99.99
13496;DHT22;6820;49.374;8.452;2022-09-27T22:30:56;11.27;99.99
13496;DHT22;6820;49.374;8.452;2022-09-27T22:35:04;11.26;99.99
13496;DHT22;6820;49.374;8.452;2022-09-27T22:39:06;11.27;99.99
13496;DHT22;6820;49.374;8.452;2022-09-27T22:43:08;11.31;99.99
13496;DHT22;6820;49.374;8.452;2022-09-27T22:47:09;11.36;99.99
13496;DHT22;6820;49.374;8.452;2022-09-27T22:51:11;11.39;99.99
13496;DHT22;6820;49.374;8.452;2022-09-27T22:55:13;11.39;99.99
13496;DHT22;6820;49.374;8.452;2022-09-27T22:59:14;11.41;99.99
13496;DHT22;6820;49.374;8.452;2022-09-27T23:03:16;11.42;99.99
13496;DHT22;6820;49.374;8.452;2022-09-27T23:07:17;11.42;99.99
13496;DHT22;6820;49.374;8.452;2022-09-27T23:11:20;11.42;99.99
13496;DHT22;6820;49.374;8.452;2022-09-27T23:15:22;11.45;99.99
13496;DHT22;6820;49.374;8.452;2022-09-27T23:19:24;11.45;99.99
13496;DHT22;6820;49.374;8.452;2022-09-27T23:23:27;11.46;99.99
13496;DHT22;6820;49.374;8.452;2022-09-27T23:27:28;11.48;99.99
13496;DHT22;6820;49.374;8.452;2022-09-27T23:31:42;11.49;99.99
13496;DHT22;6820;49.374;8.452;2022-09-27T23:35:43;11.51;99.99
13496;DHT22;6820;49.374;8.452;2022-09-27T23:39:45;11.53;99.99
13496;DHT22;6820;49.374;8.452;2022-09-27T23:43:46;11.54;99.99
13496;DHT22;6820;49.374;8.452;2022-09-27T23:47:49;11.54;99.99
13496;DHT22;6820;49.374;8.452;2022-09-27T23:51:51;11.57;99.99
